sensor_id;sensor_type;location;lat;lon;timestamp;pressure;altitude;pressure_sealevel;temperature;humidity
55755;BME280;41674;52.290;-1.474;2023-07-30T00:00:14;100132.19;;;13.59;85.89
55755;BME280;41674;52.290;-1.474;2023-07-30T00:02:43;100126.84;;;13.46;86.74
55755;BME280;41674;52.290;-1.474;2023-07-30T00:05:13;100123.53;;;14.26;83.84
55755;BME280;41674;52.290;-1.474;2023-07-30T00:07:42;100128.41;;;14.31;81.92
55755;BME280;41674;52.290;-1.474;2023-07-30T00:10:12;100117.40;;;14.72;81.07
55755;BME280;41674;52.290;-1.474;2023-07-30T00:12:41;100113.82;;;14.68;80.13
55755;BME280;41674;52.290;-1.474;2023-07-30T00:15:11;100115.88;;;15.48;77.49
55755;BME280;41674;52.290;-1.474;2023-07-30T00:17:40;100116.67;;;15.43;77.98
55755;BME280;41674;52.290;-1.474;2023-07-30T00:20:10;100113.58;;;14.94;78.80
55755;BME280;41674;52.290;-1.474;2023-07-30T00:22:39;100116.40;;;14.60;81.70
55755;BME280;41674;52.290;-1.474;2023-07-30T00:25:09;100114.68;;;14.62;80.37
55755;BME280;41674;52.290;-1.474;2023-07-30T00:27:39;100114.35;;;15.20;80.19
55755;BME280;41674;52.290;-1.474;2023-07-30T00:30:09;100107.89;;;14.19;82.56
55755;BME280;41674;52.290;-1.474;2023-07-30T00:32:38;100108.13;;;14.50;82.94
55755;BME280;41674;52.290;-1.474;2023-07-30T00:35:08;100113.30;;;13.88;85.27
55755;BME280;41674;52.290;-1.474;2023-07-30T00:37:37;100121.22;;;13.54;88.92
55755;BME280;41674;52.290;-1.474;2023-07-30T00:40:07;100121.18;;;13.64;88.02
55755;BME280;41674;52.290;-1.474;2023-07-30T00:42:36;100115.94;;;14.07;85.94
55755;BME280;41674;52.290;-1.474;2023-07-30T00:45:07;100119.04;;;13.83;86.33
55755;BME280;41674;52.290;-1.474;2023-07-30T00:47:36;100120.14;;;13.11;89.55
55755;BME280;41674;52.290;-1.474;2023-07-30T00:50:06;100121.35;;;14.19;86.06
55755;BME280;41674;52.290;-1.474;2023-07-30T00:52:35;100130.12;;;14.08;85.56
55755;BME280;41674;52.290;-1.474;2023-07-30T00:55:06;100130.41;;;13.75;87.42
55755;BME280;41674;52.290;-1.474;2023-07-30T00:57:34;100133.43;;;13.65;87.60
55755;BME280;41674;52.290;-1.474;2023-07-30T01:00:04;100130.78;;;13.98;86.57
55755;BME280;41674;52.290;-1.474;2023-07-30T01:02:33;100125.23;;;13.48;88.93
55755;BME280;41674;52.290;-1.474;2023-07-30T01:05:03;100134.55;;;13.30;89.28
55755;BME280;41674;52.290;-1.474;2023-07-30T01:07:32;100129.67;;;13.54;86.39
55755;BME280;41674;52.290;-1.474;2023-07-30T01:10:02;100137.72;;;13.44;88.59
55755;BME280;41674;52.290;-1.474;2023-07-30T01:12:33;100140.01;;;13.37;86.92
55755;BME280;41674;52.290;-1.474;2023-07-30T01:15:01;100139.92;;;14.24;85.07
55755;BME280;41674;52.290;-1.474;2023-07-30T01:17:31;100142.61;;;14.49;83.82
55755;BME280;41674;52.290;-1.474;2023-07-30T01:20:00;100142.42;;;14.06;86.69
55755;BME280;41674;52.290;-1.474;2023-07-30T01:22:30;100141.82;;;13.58;86.46
55755;BME280;41674;52.290;-1.474;2023-07-30T01:24:59;100134.50;;;14.15;85.25
55755;BME280;41674;52.290;-1.474;2023-07-30T01:27:31;100132.01;;;14.21;84.37
55755;BME280;41674;52.290;-1.474;2023-07-30T01:30:05;100130.25;;;14.79;83.84
55755;BME280;41674;52.290;-1.474;2023-07-30T01:32:28;100130.11;;;14.87;82.49
55755;BME280;41674;52.290;-1.474;2023-07-30T01:34:58;100135.05;;;14.34;85.11
55755;BME280;41674;52.290;-1.474;2023-07-30T01:37:28;100136.57;;;13.81;86.97
55755;BME280;41674;52.290;-1.474;2023-07-30T01:39:57;100131.32;;;14.16;86.37
55755;BME280;41674;52.290;-1.474;2023-07-30T01:42:28;100131.85;;;14.50;85.91
55755;BME280;41674;52.290;-1.474;2023-07-30T01:44:56;100139.07;;;13.44;89.56
55755;BME280;41674;52.290;-1.474;2023-07-30T01:47:26;100137.06;;;13.63;88.66
55755;BME280;41674;52.290;-1.474;2023-07-30T01:49:55;100144.68;;;13.21;91.03
55755;BME280;41674;52.290;-1.474;2023-07-30T01:52:25;100145.81;;;13.65;89.22
55755;BME280;41674;52.290;-1.474;2023-07-30T01:54:54;100147.74;;;13.20;92.08
55755;BME280;41674;52.290;-1.474;2023-07-30T01:57:24;100144.99;;;13.90;89.20
55755;BME280;41674;52.290;-1.474;2023-07-30T01:59:53;100141.65;;;14.05;88.48
55755;BME280;41674;52.290;-1.474;2023-07-30T02:02:23;100144.80;;;13.98;87.91
55755;BME280;41674;52.290;-1.474;2023-07-30T02:04:52;100141.95;;;14.11;89.21
55755;BME280;41674;52.290;-1.474;2023-07-30T02:07:22;100142.45;;;14.36;86.37
55755;BME280;41674;52.290;-1.474;2023-07-30T02:09:52;100151.34;;;13.98;87.53
55755;BME280;41674;52.290;-1.474;2023-07-30T02:12:21;100148.47;;;14.12;86.56
55755;BME280;41674;52.290;-1.474;2023-07-30T02:14:51;100155.38;;;14.18;87.47
55755;BME280;41674;52.290;-1.474;2023-07-30T02:17:20;100153.33;;;13.91;89.19
55755;BME280;41674;52.290;-1.474;2023-07-30T02:19:50;100153.93;;;14.27;87.52
55755;BME280;41674;52.290;-1.474;2023-07-30T02:22:20;100154.83;;;13.75;89.80
55755;BME280;41674;52.290;-1.474;2023-07-30T02:24:49;100156.98;;;13.48;89.93
55755;BME280;41674;52.290;-1.474;2023-07-30T02:27:19;100158.71;;;13.77;89.49
55755;BME280;41674;52.290;-1.474;2023-07-30T02:29:48;100152.87;;;13.71;88.50
55755;BME280;41674;52.290;-1.474;2023-07-30T02:32:18;100151.57;;;13.79;89.30
55755;BME280;41674;52.290;-1.474;2023-07-30T02:34:48;100155.13;;;14.16;88.05
55755;BME280;41674;52.290;-1.474;2023-07-30T02:37:17;100155.14;;;13.77;89.31
55755;BME280;41674;52.290;-1.474;2023-07-30T02:39:47;100156.80;;;13.37;91.71
55755;BME280;41674;52.290;-1.474;2023-07-30T02:42:16;100155.17;;;13.94;89.44
55755;BME280;41674;52.290;-1.474;2023-07-30T02:44:46;100157.90;;;13.96;89.16
55755;BME280;41674;52.290;-1.474;2023-07-30T02:47:15;100157.10;;;13.46;92.69
55755;BME280;41674;52.290;-1.474;2023-07-30T02:49:45;100158.15;;;13.68;91.12
55755;BME280;41674;52.290;-1.474;2023-07-30T02:52:14;100158.70;;;13.52;89.90
55755;BME280;41674;52.290;-1.474;2023-07-30T02:54:44;100157.23;;;14.47;86.31
55755;BME280;41674;52.290;-1.474;2023-07-30T02:57:14;100159.90;;;13.72;88.73
55755;BME280;41674;52.290;-1.474;2023-07-30T02:59:43;100163.91;;;14.09;86.85
55755;BME280;41674;52.290;-1.474;2023-07-30T03:02:13;100172.85;;;14.01;86.96
55755;BME280;41674;52.290;-1.474;2023-07-30T03:04:42;100169.76;;;14.25;87.31
55755;BME280;41674;52.290;-1.474;2023-07-30T03:07:12;100167.38;;;14.12;90.98
55755;BME280;41674;52.290;-1.474;2023-07-30T03:09:41;100164.58;;;15.02;88.05
55755;BME280;41674;52.290;-1.474;2023-07-30T03:12:11;100164.48;;;14.66;86.50
55755;BME280;41674;52.290;-1.474;2023-07-30T03:14:41;100163.83;;;14.75;87.54
55755;BME280;41674;52.290;-1.474;2023-07-30T03:17:10;100166.65;;;14.44;89.19
55755;BME280;41674;52.290;-1.474;2023-07-30T03:19:40;100169.54;;;13.84;92.98
55755;BME280;41674;52.290;-1.474;2023-07-30T03:22:09;100174.53;;;13.54;95.06
55755;BME280;41674;52.290;-1.474;2023-07-30T03:24:39;100166.60;;;13.92;94.20
55755;BME280;41674;52.290;-1.474;2023-07-30T03:27:09;100172.80;;;13.72;94.27
55755;BME280;41674;52.290;-1.474;2023-07-30T03:29:38;100175.36;;;14.45;92.16
55755;BME280;41674;52.290;-1.474;2023-07-30T03:32:08;100174.45;;;14.12;93.30
55755;BME280;41674;52.290;-1.474;2023-07-30T03:34:37;100174.99;;;14.74;90.59
55755;BME280;41674;52.290;-1.474;2023-07-30T03:37:08;100173.62;;;14.27;90.66
55755;BME280;41674;52.290;-1.474;2023-07-30T03:39:37;100167.88;;;14.23;90.53
55755;BME280;41674;52.290;-1.474;2023-07-30T03:42:06;100176.06;;;14.63;88.80
55755;BME280;41674;52.290;-1.474;2023-07-30T03:44:36;100168.60;;;14.51;89.15
55755;BME280;41674;52.290;-1.474;2023-07-30T03:47:05;100165.63;;;15.26;86.73
55755;BME280;41674;52.290;-1.474;2023-07-30T03:49:35;100168.59;;;14.96;87.56
55755;BME280;41674;52.290;-1.474;2023-07-30T03:52:05;100169.69;;;15.20;85.74
55755;BME280;41674;52.290;-1.474;2023-07-30T03:54:34;100168.72;;;15.41;84.80
55755;BME280;41674;52.290;-1.474;2023-07-30T03:57:04;100171.07;;;14.96;84.94
55755;BME280;41674;52.290;-1.474;2023-07-30T03:59:33;100168.03;;;15.18;84.58
55755;BME280;41674;52.290;-1.474;2023-07-30T04:02:04;100169.24;;;15.01;84.40
55755;BME280;41674;52.290;-1.474;2023-07-30T04:04:33;100164.65;;;14.55;86.40
55755;BME280;41674;52.290;-1.474;2023-07-30T04:07:02;100161.58;;;14.51;86.72
55755;BME280;41674;52.290;-1.474;2023-07-30T04:09:31;100167.95;;;14.20;86.77
55755;BME280;41674;52.290;-1.474;2023-07-30T04:12:01;100165.77;;;14.90;85.14
55755;BME280;41674;52.290;-1.474;2023-07-30T04:14:30;100165.26;;;14.21;87.34
55755;BME280;41674;52.290;-1.474;2023-07-30T04:17:00;100168.10;;;14.18;88.94
55755;BME280;41674;52.290;-1.474;2023-07-30T04:19:30;100174.91;;;14.34;88.94
55755;BME280;41674;52.290;-1.474;2023-07-30T04:21:59;100178.41;;;13.18;92.98
55755;BME280;41674;52.290;-1.474;2023-07-30T04:24:29;100181.24;;;13.97;90.13
55755;BME280;41674;52.290;-1.474;2023-07-30T04:27:00;100180.97;;;14.03;90.45
55755;BME280;41674;52.290;-1.474;2023-07-30T04:29:28;100185.46;;;14.50;87.80
55755;BME280;41674;52.290;-1.474;2023-07-30T04:31:57;100190.04;;;14.57;86.92
55755;BME280;41674;52.290;-1.474;2023-07-30T04:34:27;100194.23;;;14.69;87.42
55755;BME280;41674;52.290;-1.474;2023-07-30T04:36:56;100193.47;;;14.42;88.13
55755;BME280;41674;52.290;-1.474;2023-07-30T04:39:26;100191.01;;;13.79;89.83
55755;BME280;41674;52.290;-1.474;2023-07-30T04:41:56;100199.33;;;14.45;89.00
55755;BME280;41674;52.290;-1.474;2023-07-30T04:44:25;100201.86;;;13.86;89.73
55755;BME280;41674;52.290;-1.474;2023-07-30T04:46:54;100201.73;;;13.68;92.50
55755;BME280;41674;52.290;-1.474;2023-07-30T04:49:24;100202.51;;;13.77;93.62
55755;BME280;41674;52.290;-1.474;2023-07-30T04:51:54;100203.84;;;13.41;96.77
55755;BME280;41674;52.290;-1.474;2023-07-30T04:54:23;100203.27;;;13.33;97.08
55755;BME280;41674;52.290;-1.474;2023-07-30T04:56:53;100203.94;;;13.09;98.04
55755;BME280;41674;52.290;-1.474;2023-07-30T04:59:22;100208.48;;;12.78;98.90
55755;BME280;41674;52.290;-1.474;2023-07-30T05:01:52;100203.51;;;13.41;95.88
55755;BME280;41674;52.290;-1.474;2023-07-30T05:04:22;100201.19;;;13.70;94.65
55755;BME280;41674;52.290;-1.474;2023-07-30T05:06:51;100201.57;;;13.34;93.93
55755;BME280;41674;52.290;-1.474;2023-07-30T05:09:21;100194.93;;;13.94;92.70
55755;BME280;41674;52.290;-1.474;2023-07-30T05:11:51;100197.54;;;14.71;90.98
55755;BME280;41674;52.290;-1.474;2023-07-30T05:14:20;100200.23;;;14.97;89.36
55755;BME280;41674;52.290;-1.474;2023-07-30T05:16:50;100204.29;;;14.63;89.02
55755;BME280;41674;52.290;-1.474;2023-07-30T05:19:19;100209.46;;;14.34;90.48
55755;BME280;41674;52.290;-1.474;2023-07-30T05:21:49;100211.79;;;14.05;92.71
55755;BME280;41674;52.290;-1.474;2023-07-30T05:24:20;100215.81;;;14.39;92.67
55755;BME280;41674;52.290;-1.474;2023-07-30T05:26:48;100218.24;;;14.69;91.99
55755;BME280;41674;52.290;-1.474;2023-07-30T05:29:17;100225.26;;;13.87;94.65
55755;BME280;41674;52.290;-1.474;2023-07-30T05:31:47;100228.75;;;14.63;91.60
55755;BME280;41674;52.290;-1.474;2023-07-30T05:34:16;100236.36;;;13.75;95.05
55755;BME280;41674;52.290;-1.474;2023-07-30T05:36:46;100238.65;;;13.82;94.49
55755;BME280;41674;52.290;-1.474;2023-07-30T05:39:16;100238.74;;;14.55;92.04
55755;BME280;41674;52.290;-1.474;2023-07-30T05:41:45;100245.20;;;13.82;94.73
55755;BME280;41674;52.290;-1.474;2023-07-30T05:44:15;100244.88;;;13.15;98.40
55755;BME280;41674;52.290;-1.474;2023-07-30T05:46:44;100249.24;;;12.98;100.00
55755;BME280;41674;52.290;-1.474;2023-07-30T05:49:14;100249.44;;;13.26;100.00
55755;BME280;41674;52.290;-1.474;2023-07-30T05:51:44;100256.04;;;12.11;100.00
55755;BME280;41674;52.290;-1.474;2023-07-30T05:54:13;100251.02;;;11.89;100.00
55755;BME280;41674;52.290;-1.474;2023-07-30T05:56:43;100249.71;;;10.85;100.00
55755;BME280;41674;52.290;-1.474;2023-07-30T05:59:12;100234.28;;;10.51;100.00
55755;BME280;41674;52.290;-1.474;2023-07-30T06:01:42;100221.22;;;10.92;100.00
55755;BME280;41674;52.290;-1.474;2023-07-30T06:04:12;100231.80;;;11.55;100.00
55755;BME280;41674;52.290;-1.474;2023-07-30T06:06:41;100229.95;;;10.99;100.00
55755;BME280;41674;52.290;-1.474;2023-07-30T06:11:40;100235.55;;;11.67;100.00
55755;BME280;41674;52.290;-1.474;2023-07-30T06:14:10;100229.48;;;11.38;100.00
55755;BME280;41674;52.290;-1.474;2023-07-30T06:16:39;100238.81;;;12.06;100.00
55755;BME280;41674;52.290;-1.474;2023-07-30T06:19:09;100252.44;;;12.04;100.00
55755;BME280;41674;52.290;-1.474;2023-07-30T06:21:38;100243.47;;;12.06;100.00
55755;BME280;41674;52.290;-1.474;2023-07-30T06:24:08;100242.57;;;12.56;100.00
55755;BME280;41674;52.290;-1.474;2023-07-30T06:26:38;100248.22;;;12.33;100.00
55755;BME280;41674;52.290;-1.474;2023-07-30T06:29:07;100250.46;;;12.68;100.00
55755;BME280;41674;52.290;-1.474;2023-07-30T06:31:37;100252.58;;;12.48;100.00
55755;BME280;41674;52.290;-1.474;2023-07-30T06:34:07;100252.84;;;13.28;100.00
55755;BME280;41674;52.290;-1.474;2023-07-30T06:36:36;100251.17;;;12.91;100.00
55755;BME280;41674;52.290;-1.474;2023-07-30T06:39:06;100252.05;;;13.20;100.00
55755;BME280;41674;52.290;-1.474;2023-07-30T06:41:35;100247.82;;;13.69;100.00
55755;BME280;41674;52.290;-1.474;2023-07-30T06:44:05;100251.10;;;13.25;100.00
55755;BME280;41674;52.290;-1.474;2023-07-30T06:46:35;100253.16;;;13.22;100.00
55755;BME280;41674;52.290;-1.474;2023-07-30T06:49:04;100252.30;;;13.16;100.00
55755;BME280;41674;52.290;-1.474;2023-07-30T06:51:34;100246.53;;;13.69;100.00
55755;BME280;41674;52.290;-1.474;2023-07-30T06:54:03;100248.01;;;14.30;100.00
55755;BME280;41674;52.290;-1.474;2023-07-30T06:56:33;100252.56;;;13.37;100.00
55755;BME280;41674;52.290;-1.474;2023-07-30T06:59:03;100250.75;;;13.50;100.00
55755;BME280;41674;52.290;-1.474;2023-07-30T07:01:32;100250.59;;;13.54;100.00
55755;BME280;41674;52.290;-1.474;2023-07-30T07:04:02;100253.28;;;13.86;100.00
55755;BME280;41674;52.290;-1.474;2023-07-30T07:06:31;100251.32;;;14.96;99.30
55755;BME280;41674;52.290;-1.474;2023-07-30T07:09:01;100248.22;;;15.16;96.14
55755;BME280;41674;52.290;-1.474;2023-07-30T07:11:30;100255.51;;;14.54;97.20
55755;BME280;41674;52.290;-1.474;2023-07-30T07:14:00;100257.04;;;13.91;100.00
55755;BME280;41674;52.290;-1.474;2023-07-30T07:16:29;100260.68;;;13.97;100.00
55755;BME280;41674;52.290;-1.474;2023-07-30T07:18:59;100261.69;;;14.15;97.25
55755;BME280;41674;52.290;-1.474;2023-07-30T07:21:28;100270.44;;;14.46;96.52
55755;BME280;41674;52.290;-1.474;2023-07-30T07:23:58;100273.01;;;14.51;91.50
55755;BME280;41674;52.290;-1.474;2023-07-30T07:26:28;100276.89;;;14.65;94.68
55755;BME280;41674;52.290;-1.474;2023-07-30T07:28:57;100276.38;;;14.94;91.67
55755;BME280;41674;52.290;-1.474;2023-07-30T07:31:27;100273.73;;;15.12;89.02
55755;BME280;41674;52.290;-1.474;2023-07-30T07:33:56;100270.18;;;15.10;90.03
55755;BME280;41674;52.290;-1.474;2023-07-30T07:36:26;100271.34;;;14.96;86.57
55755;BME280;41674;52.290;-1.474;2023-07-30T07:38:55;100272.62;;;14.99;85.13
55755;BME280;41674;52.290;-1.474;2023-07-30T07:41:25;100271.33;;;15.32;87.98
55755;BME280;41674;52.290;-1.474;2023-07-30T07:43:54;100276.17;;;14.59;86.46
55755;BME280;41674;52.290;-1.474;2023-07-30T07:46:24;100280.56;;;14.28;89.43
55755;BME280;41674;52.290;-1.474;2023-07-30T07:48:53;100285.41;;;14.53;86.87
55755;BME280;41674;52.290;-1.474;2023-07-30T07:51:23;100288.65;;;15.10;85.06
55755;BME280;41674;52.290;-1.474;2023-07-30T07:53:52;100286.68;;;15.33;85.36
55755;BME280;41674;52.290;-1.474;2023-07-30T07:56:22;100287.13;;;14.96;79.94
55755;BME280;41674;52.290;-1.474;2023-07-30T07:58:52;100289.37;;;15.38;81.84
55755;BME280;41674;52.290;-1.474;2023-07-30T08:01:21;100292.78;;;15.52;80.81
55755;BME280;41674;52.290;-1.474;2023-07-30T08:03:51;100301.56;;;15.63;78.51
55755;BME280;41674;52.290;-1.474;2023-07-30T08:06:20;100292.53;;;15.73;75.25
55755;BME280;41674;52.290;-1.474;2023-07-30T08:08:50;100301.65;;;15.34;76.28
55755;BME280;41674;52.290;-1.474;2023-07-30T08:11:19;100302.74;;;15.61;74.39
55755;BME280;41674;52.290;-1.474;2023-07-30T08:13:49;100304.08;;;15.47;77.06
55755;BME280;41674;52.290;-1.474;2023-07-30T08:16:18;100306.12;;;15.52;74.28
55755;BME280;41674;52.290;-1.474;2023-07-30T08:18:48;100307.10;;;15.13;76.34
55755;BME280;41674;52.290;-1.474;2023-07-30T08:21:17;100306.65;;;15.38;77.94
55755;BME280;41674;52.290;-1.474;2023-07-30T08:23:50;100312.48;;;15.74;78.31
55755;BME280;41674;52.290;-1.474;2023-07-30T08:26:16;100313.02;;;15.47;77.85
55755;BME280;41674;52.290;-1.474;2023-07-30T08:28:46;100312.87;;;16.12;76.78
55755;BME280;41674;52.290;-1.474;2023-07-30T08:31:15;100313.79;;;16.36;76.27
55755;BME280;41674;52.290;-1.474;2023-07-30T08:33:45;100316.74;;;15.83;74.69
55755;BME280;41674;52.290;-1.474;2023-07-30T08:36:15;100306.21;;;15.76;75.90
55755;BME280;41674;52.290;-1.474;2023-07-30T08:38:44;100310.63;;;16.28;75.99
55755;BME280;41674;52.290;-1.474;2023-07-30T08:41:15;100311.75;;;15.62;77.55
55755;BME280;41674;52.290;-1.474;2023-07-30T08:43:44;100311.73;;;16.17;77.03
55755;BME280;41674;52.290;-1.474;2023-07-30T08:46:13;100315.80;;;15.93;78.12
55755;BME280;41674;52.290;-1.474;2023-07-30T08:48:42;100312.21;;;16.49;74.03
55755;BME280;41674;52.290;-1.474;2023-07-30T08:51:13;100318.80;;;16.31;73.76
55755;BME280;41674;52.290;-1.474;2023-07-30T08:53:42;100318.42;;;16.53;70.04
55755;BME280;41674;52.290;-1.474;2023-07-30T08:56:11;100322.18;;;16.65;69.60
55755;BME280;41674;52.290;-1.474;2023-07-30T08:58:41;100320.32;;;16.85;68.60
55755;BME280;41674;52.290;-1.474;2023-07-30T09:01:12;100318.05;;;17.31;71.50
55755;BME280;41674;52.290;-1.474;2023-07-30T09:03:40;100320.54;;;17.66;70.89
55755;BME280;41674;52.290;-1.474;2023-07-30T09:06:09;100317.09;;;17.21;68.16
55755;BME280;41674;52.290;-1.474;2023-07-30T09:08:39;100315.89;;;16.85;69.10
55755;BME280;41674;52.290;-1.474;2023-07-30T09:11:09;100312.89;;;16.38;71.77
55755;BME280;41674;52.290;-1.474;2023-07-30T09:13:38;100316.44;;;16.48;71.68
55755;BME280;41674;52.290;-1.474;2023-07-30T09:16:09;100313.44;;;17.47;68.80
55755;BME280;41674;52.290;-1.474;2023-07-30T09:18:40;100318.33;;;17.28;68.94
55755;BME280;41674;52.290;-1.474;2023-07-30T09:21:06;100309.81;;;18.01;67.78
55755;BME280;41674;52.290;-1.474;2023-07-30T09:23:39;100314.56;;;17.70;69.35
55755;BME280;41674;52.290;-1.474;2023-07-30T09:26:05;100326.41;;;16.53;68.38
55755;BME280;41674;52.290;-1.474;2023-07-30T09:28:35;100327.74;;;16.54;69.82
55755;BME280;41674;52.290;-1.474;2023-07-30T09:31:06;100327.21;;;16.26;67.53
55755;BME280;41674;52.290;-1.474;2023-07-30T09:33:34;100329.54;;;16.78;66.97
55755;BME280;41674;52.290;-1.474;2023-07-30T09:36:04;100328.10;;;16.40;67.00
55755;BME280;41674;52.290;-1.474;2023-07-30T09:38:38;100329.28;;;16.91;66.40
55755;BME280;41674;52.290;-1.474;2023-07-30T09:41:02;100327.08;;;17.08;62.12
55755;BME280;41674;52.290;-1.474;2023-07-30T09:43:32;100333.23;;;16.66;64.66
55755;BME280;41674;52.290;-1.474;2023-07-30T09:46:02;100325.71;;;17.13;63.85
55755;BME280;41674;52.290;-1.474;2023-07-30T09:48:32;100321.94;;;17.66;64.70
55755;BME280;41674;52.290;-1.474;2023-07-30T09:51:03;100320.96;;;17.93;62.62
55755;BME280;41674;52.290;-1.474;2023-07-30T09:53:30;100316.67;;;17.90;63.06
55755;BME280;41674;52.290;-1.474;2023-07-30T09:56:00;100326.17;;;18.32;63.99
55755;BME280;41674;52.290;-1.474;2023-07-30T09:58:29;100329.28;;;18.94;58.47
55755;BME280;41674;52.290;-1.474;2023-07-30T10:00:59;100332.85;;;18.96;56.04
55755;BME280;41674;52.290;-1.474;2023-07-30T10:03:28;100326.86;;;18.36;56.72
55755;BME280;41674;52.290;-1.474;2023-07-30T10:06:02;100331.19;;;17.99;58.11
55755;BME280;41674;52.290;-1.474;2023-07-30T10:08:31;100331.67;;;18.57;58.00
55755;BME280;41674;52.290;-1.474;2023-07-30T10:10:58;100332.55;;;18.23;59.54
55755;BME280;41674;52.290;-1.474;2023-07-30T10:13:27;100330.03;;;17.72;60.99
55755;BME280;41674;52.290;-1.474;2023-07-30T10:15:56;100327.13;;;17.97;60.95
55755;BME280;41674;52.290;-1.474;2023-07-30T10:18:37;100326.69;;;17.81;65.98
55755;BME280;41674;52.290;-1.474;2023-07-30T10:20:55;100335.44;;;18.27;62.59
55755;BME280;41674;52.290;-1.474;2023-07-30T10:23:27;100332.98;;;18.01;59.92
55755;BME280;41674;52.290;-1.474;2023-07-30T10:25:54;100330.13;;;18.56;58.74
55755;BME280;41674;52.290;-1.474;2023-07-30T10:28:31;100328.97;;;18.29;60.32
55755;BME280;41674;52.290;-1.474;2023-07-30T10:30:56;100333.51;;;17.89;61.34
55755;BME280;41674;52.290;-1.474;2023-07-30T10:33:22;100330.31;;;18.74;61.15
55755;BME280;41674;52.290;-1.474;2023-07-30T10:35:54;100328.14;;;18.54;58.07
55755;BME280;41674;52.290;-1.474;2023-07-30T10:38:28;100329.78;;;17.92;59.74
55755;BME280;41674;52.290;-1.474;2023-07-30T10:41:01;100333.03;;;18.23;60.05
55755;BME280;41674;52.290;-1.474;2023-07-30T10:43:21;100331.12;;;17.80;60.61
55755;BME280;41674;52.290;-1.474;2023-07-30T10:45:51;100330.59;;;18.40;60.51
55755;BME280;41674;52.290;-1.474;2023-07-30T10:48:31;100334.33;;;18.09;60.97
55755;BME280;41674;52.290;-1.474;2023-07-30T10:50:50;100335.06;;;17.60;61.13
55755;BME280;41674;52.290;-1.474;2023-07-30T10:53:19;100329.21;;;18.93;60.75
55755;BME280;41674;52.290;-1.474;2023-07-30T10:55:48;100326.04;;;18.20;60.51
55755;BME280;41674;52.290;-1.474;2023-07-30T10:58:19;100326.48;;;18.84;59.36
55755;BME280;41674;52.290;-1.474;2023-07-30T11:00:49;100330.40;;;17.93;58.27
55755;BME280;41674;52.290;-1.474;2023-07-30T11:03:18;100336.31;;;18.51;56.84
55755;BME280;41674;52.290;-1.474;2023-07-30T11:05:47;100339.75;;;17.95;57.69
55755;BME280;41674;52.290;-1.474;2023-07-30T11:08:17;100327.82;;;18.40;55.84
55755;BME280;41674;52.290;-1.474;2023-07-30T11:10:47;100331.88;;;18.08;59.39
55755;BME280;41674;52.290;-1.474;2023-07-30T11:13:15;100327.95;;;18.04;58.27
55755;BME280;41674;52.290;-1.474;2023-07-30T11:15:45;100339.05;;;17.40;59.30
55755;BME280;41674;52.290;-1.474;2023-07-30T11:18:15;100343.81;;;17.85;58.54
55755;BME280;41674;52.290;-1.474;2023-07-30T11:20:44;100336.55;;;18.21;57.46
55755;BME280;41674;52.290;-1.474;2023-07-30T11:23:20;100327.66;;;18.62;58.22
55755;BME280;41674;52.290;-1.474;2023-07-30T11:25:46;100335.25;;;18.16;58.18
55755;BME280;41674;52.290;-1.474;2023-07-30T11:28:12;100341.47;;;18.71;57.76
55755;BME280;41674;52.290;-1.474;2023-07-30T11:30:42;100343.58;;;19.08;54.33
55755;BME280;41674;52.290;-1.474;2023-07-30T11:33:15;100346.17;;;19.32;56.03
55755;BME280;41674;52.290;-1.474;2023-07-30T11:35:41;100343.04;;;18.26;58.24
55755;BME280;41674;52.290;-1.474;2023-07-30T11:38:11;100344.86;;;18.83;56.78
55755;BME280;41674;52.290;-1.474;2023-07-30T11:40:40;100335.54;;;19.06;59.00
55755;BME280;41674;52.290;-1.474;2023-07-30T11:43:09;100336.83;;;18.96;57.80
55755;BME280;41674;52.290;-1.474;2023-07-30T11:45:39;100335.70;;;18.12;60.98
55755;BME280;41674;52.290;-1.474;2023-07-30T11:48:10;100328.64;;;17.93;64.14
55755;BME280;41674;52.290;-1.474;2023-07-30T11:50:45;100339.22;;;17.61;65.09
55755;BME280;41674;52.290;-1.474;2023-07-30T11:53:07;100333.11;;;18.16;66.59
55755;BME280;41674;52.290;-1.474;2023-07-30T11:55:38;100344.70;;;17.59;70.68
55755;BME280;41674;52.290;-1.474;2023-07-30T11:58:07;100349.87;;;17.52;71.22
55755;BME280;41674;52.290;-1.474;2023-07-30T12:00:36;100337.32;;;18.06;70.82
55755;BME280;41674;52.290;-1.474;2023-07-30T12:03:08;100336.29;;;18.52;70.78
55755;BME280;41674;52.290;-1.474;2023-07-30T12:05:37;100339.01;;;18.41;70.14
55755;BME280;41674;52.290;-1.474;2023-07-30T12:08:06;100344.08;;;19.57;67.37
55755;BME280;41674;52.290;-1.474;2023-07-30T12:10:42;100341.13;;;19.59;66.64
55755;BME280;41674;52.290;-1.474;2023-07-30T12:13:12;100336.03;;;18.97;66.86
55755;BME280;41674;52.290;-1.474;2023-07-30T12:15:33;100333.68;;;19.03;68.53
55755;BME280;41674;52.290;-1.474;2023-07-30T12:18:03;100327.41;;;18.37;70.40
55755;BME280;41674;52.290;-1.474;2023-07-30T12:20:32;100336.28;;;18.07;73.37
55755;BME280;41674;52.290;-1.474;2023-07-30T12:23:02;100345.71;;;17.95;75.65
55755;BME280;41674;52.290;-1.474;2023-07-30T12:25:32;100361.01;;;17.63;77.26
55755;BME280;41674;52.290;-1.474;2023-07-30T12:28:01;100367.42;;;17.26;82.78
55755;BME280;41674;52.290;-1.474;2023-07-30T12:30:31;100358.27;;;16.70;85.32
55755;BME280;41674;52.290;-1.474;2023-07-30T12:33:00;100360.41;;;16.97;86.52
55755;BME280;41674;52.290;-1.474;2023-07-30T12:35:30;100361.59;;;17.17;88.73
55755;BME280;41674;52.290;-1.474;2023-07-30T12:38:00;100365.19;;;17.00;91.07
55755;BME280;41674;52.290;-1.474;2023-07-30T12:40:29;100361.27;;;16.94;92.59
55755;BME280;41674;52.290;-1.474;2023-07-30T12:42:58;100363.37;;;17.14;92.51
55755;BME280;41674;52.290;-1.474;2023-07-30T12:45:28;100363.52;;;16.93;93.86
55755;BME280;41674;52.290;-1.474;2023-07-30T12:47:58;100361.30;;;17.04;94.30
55755;BME280;41674;52.290;-1.474;2023-07-30T12:50:27;100359.44;;;16.92;93.41